createdAt,value
2019-05-21T00:02:11.789Z,49.33
2019-05-21T00:04:39.405Z,49.37
2019-05-21T00:07:07.140Z,52.33
2019-05-21T00:09:34.197Z,51.23
2019-05-21T00:12:01.310Z,50.67
2019-05-21T00:14:28.663Z,53.23
2019-05-21T00:16:55.735Z,51.57
2019-05-21T00:19:22.812Z,53.10
2019-05-21T00:21:49.874Z,54.80
2019-05-21T00:24:17.055Z,52.87
2019-05-21T00:26:44.148Z,54.10
2019-05-21T00:29:47.656Z,54.93
2019-05-21T00:32:51.402Z,54.20
2019-05-21T00:35:55.506Z,53.93
2019-05-21T00:38:59.469Z,57.00
2019-05-21T00:42:03.344Z,55.90
2019-05-21T00:44:36.906Z,57.27
2019-05-21T00:47:05.535Z,58.27
2019-05-21T00:49:32.687Z,56.20
2019-05-21T00:52:08.454Z,57.60
2019-05-21T00:54:35.474Z,57.40
2019-05-21T00:57:02.642Z,57.23
2019-05-21T00:59:29.692Z,58.00
2019-05-21T01:01:56.776Z,58.27
2019-05-21T01:04:23.839Z,55.77
2019-05-21T01:06:53.634Z,57.70
2019-05-21T01:09:20.765Z,56.67
2019-05-21T01:11:47.820Z,55.80
2019-05-21T01:14:14.875Z,52.80
2019-05-21T01:16:41.969Z,51.63
2019-05-21T01:19:09.023Z,54.80
2019-05-21T01:21:36.102Z,54.07
2019-05-21T01:24:03.327Z,51.13
2019-05-21T01:26:36.647Z,52.47
2019-05-21T01:29:06.484Z,51.70
2019-05-21T01:31:33.645Z,55.07
2019-05-21T01:34:00.716Z,56.53
2019-05-21T01:36:30.058Z,56.13
2019-05-21T01:38:57.103Z,55.23
2019-05-21T01:41:25.752Z,55.57
2019-05-21T01:43:52.961Z,55.33
2019-05-21T01:46:21.629Z,55.77
2019-05-21T01:48:52.808Z,55.57
2019-05-21T01:51:20.044Z,55.20
2019-05-21T01:53:47.146Z,52.17
2019-05-21T01:56:14.305Z,50.83
2019-05-21T01:58:41.398Z,52.80
2019-05-21T02:01:10.236Z,49.37
2019-05-21T02:03:37.303Z,47.37
2019-05-21T02:06:04.395Z,48.77
2019-05-21T02:08:31.458Z,45.07
2019-05-21T02:10:58.524Z,44.17
2019-05-21T02:13:25.883Z,44.63
2019-05-21T02:15:52.949Z,45.47
2019-05-21T02:18:20.023Z,43.40
2019-05-21T02:20:48.285Z,48.60
2019-05-21T02:23:15.339Z,43.00
2019-05-21T02:25:42.436Z,44.43
2019-05-21T02:28:09.492Z,44.77
2019-05-21T02:30:36.579Z,42.10
2019-05-21T02:33:03.652Z,45.83
2019-05-21T02:35:30.766Z,41.80
2019-05-21T02:37:58.019Z,42.47
2019-05-21T02:40:25.077Z,41.53
2019-05-21T02:42:52.342Z,42.40
2019-05-21T02:45:19.531Z,42.67
2019-05-21T02:47:46.628Z,43.07
2019-05-21T02:50:14.182Z,43.40
2019-05-21T02:52:41.287Z,45.53
2019-05-21T02:55:09.047Z,44.73
2019-05-21T02:57:42.169Z,43.37
2019-05-21T03:00:31.569Z,45.60
2019-05-21T03:02:58.808Z,46.00
2019-05-21T03:05:25.842Z,46.33
2019-05-21T03:07:52.944Z,47.17
2019-05-21T03:10:19.991Z,46.67
2019-05-21T03:12:47.047Z,46.70
2019-05-21T03:15:14.134Z,48.80
2019-05-21T03:17:41.222Z,47.67
2019-05-21T03:20:10.074Z,47.07
2019-05-21T03:22:37.201Z,47.47
2019-05-21T03:25:05.296Z,47.70
2019-05-21T03:27:32.360Z,49.07
2019-05-21T03:29:59.439Z,50.73
2019-05-21T03:32:26.493Z,51.23
2019-05-21T03:34:55.947Z,53.40
2019-05-21T03:37:24.934Z,50.20
2019-05-21T03:39:52.252Z,50.77
2019-05-21T03:42:19.303Z,51.20
2019-05-21T03:44:58.965Z,50.13
2019-05-21T03:47:15.491Z,50.87
2019-05-21T03:50:02.219Z,49.50
2019-05-21T03:52:29.303Z,50.53
2019-05-21T03:54:56.358Z,50.50
2019-05-21T03:57:23.460Z,50.90
2019-05-21T03:59:50.596Z,52.20
2019-05-21T04:02:17.646Z,52.67
2019-05-21T04:04:44.747Z,49.60
2019-05-21T04:07:11.820Z,49.67
2019-05-21T04:09:38.900Z,50.10
2019-05-21T04:12:05.984Z,49.10
2019-05-21T04:14:40.932Z,51.63
2019-05-21T04:17:25.303Z,51.53
2019-05-21T04:19:52.357Z,46.93
2019-05-21T04:22:19.543Z,50.43
2019-05-21T04:24:46.630Z,51.30
2019-05-21T04:27:14.002Z,49.67
2019-05-21T04:29:41.063Z,49.53
2019-05-21T04:32:08.154Z,51.47
2019-05-21T04:34:35.216Z,50.60
2019-05-21T04:37:10.981Z,49.37
2019-05-21T04:39:31.286Z,48.53
2019-05-21T04:41:58.348Z,49.37
2019-05-21T04:44:25.472Z,47.37
2019-05-21T04:46:53.589Z,48.47
2019-05-21T04:49:20.665Z,46.73
2019-05-21T04:51:47.754Z,45.87
2019-05-21T04:54:14.865Z,46.00
2019-05-21T04:56:41.940Z,42.03
2019-05-21T04:59:09.135Z,42.97
2019-05-21T05:01:36.312Z,46.50
2019-05-21T05:04:03.392Z,42.00
2019-05-21T05:06:30.591Z,43.87
2019-05-21T05:08:59.452Z,43.27
2019-05-21T05:11:26.510Z,43.77
2019-05-21T05:13:53.813Z,41.57
2019-05-21T05:16:21.964Z,42.30
2019-05-21T05:18:49.276Z,41.47
2019-05-21T05:21:16.378Z,45.47
2019-05-21T05:23:43.466Z,43.77
2019-05-21T05:26:10.523Z,40.90
2019-05-21T05:28:37.624Z,40.87
2019-05-21T05:31:04.745Z,39.80
2019-05-21T05:33:31.908Z,39.50
2019-05-21T05:36:00.818Z,39.90
2019-05-21T05:38:27.890Z,37.90
2019-05-21T05:40:54.956Z,38.67
2019-05-21T05:43:22.105Z,35.67
2019-05-21T05:45:49.243Z,35.27
2019-05-21T05:48:16.791Z,35.70
2019-05-21T05:50:46.156Z,36.40
2019-05-21T05:53:13.341Z,34.70
2019-05-21T05:55:41.505Z,33.73
2019-05-21T05:58:09.835Z,34.00
2019-05-21T06:00:37.315Z,34.33
2019-05-21T06:03:04.518Z,35.87
2019-05-21T06:05:31.653Z,38.00
2019-05-21T06:08:00.342Z,36.17
2019-05-21T06:10:27.715Z,36.73
2019-05-21T06:12:54.852Z,35.57
2019-05-21T06:15:23.133Z,38.00
2019-05-21T06:17:50.225Z,39.57
2019-05-21T06:20:18.499Z,37.23
2019-05-21T06:22:45.689Z,39.97
2019-05-21T06:25:13.364Z,38.73
2019-05-21T06:27:40.535Z,37.77
2019-05-21T06:30:08.137Z,37.40
2019-05-21T06:32:35.127Z,38.53
2019-05-21T06:35:02.113Z,34.73
2019-05-21T06:37:29.048Z,33.57
2019-05-21T06:39:56.036Z,34.87
2019-05-21T06:42:23.021Z,33.93
2019-05-21T06:44:51.417Z,34.53
2019-05-21T06:47:18.402Z,35.73
2019-05-21T06:49:45.392Z,36.63
2019-05-21T06:52:12.370Z,36.03
2019-05-21T06:54:39.328Z,35.50
2019-05-21T06:57:06.318Z,34.93
2019-05-21T06:59:33.287Z,35.80
2019-05-21T07:02:00.246Z,36.73
2019-05-21T07:04:27.228Z,35.07
2019-05-21T07:06:54.167Z,34.10
2019-05-21T07:09:21.127Z,36.23
2019-05-21T07:11:48.250Z,37.00
2019-05-21T07:14:15.230Z,34.87
2019-05-21T07:16:42.181Z,37.03
2019-05-21T07:19:09.171Z,36.63
2019-05-21T07:21:36.160Z,37.27
2019-05-21T07:24:03.230Z,34.70
2019-05-21T07:26:30.240Z,37.23
2019-05-21T07:28:57.538Z,36.90
2019-05-21T07:31:24.592Z,34.93
2019-05-21T07:33:51.645Z,33.00
2019-05-21T07:36:18.628Z,35.10
2019-05-21T07:38:53.099Z,34.97
2019-05-21T07:41:15.340Z,32.87
2019-05-21T07:43:42.339Z,32.50
2019-05-21T07:46:09.267Z,31.90
2019-05-21T07:48:36.260Z,31.23
2019-05-21T07:51:03.283Z,31.10
2019-05-21T07:53:30.300Z,29.87
2019-05-21T07:55:58.900Z,30.90
2019-05-21T07:58:25.862Z,32.63
2019-05-21T08:00:52.800Z,33.00
2019-05-21T08:03:19.773Z,30.60
2019-05-21T08:05:46.708Z,32.80
2019-05-21T08:08:13.651Z,32.40
2019-05-21T08:10:40.646Z,32.23
2019-05-21T08:13:07.694Z,33.20
2019-05-21T08:15:34.628Z,32.60
2019-05-21T08:18:01.608Z,30.63
2019-05-21T08:20:28.909Z,33.10
2019-05-21T08:22:55.852Z,33.43
2019-05-21T08:25:22.823Z,33.97
2019-05-21T08:27:50.028Z,33.70
2019-05-21T08:30:17.088Z,34.67
2019-05-21T08:32:44.268Z,33.57
2019-05-21T08:35:11.705Z,34.13
2019-05-21T08:37:38.643Z,34.63
2019-05-21T08:40:06.055Z,35.60
2019-05-21T08:42:33.119Z,35.17
2019-05-21T08:45:00.217Z,35.47
2019-05-21T08:47:27.325Z,34.23
2019-05-21T08:49:54.261Z,35.07
2019-05-21T08:52:21.247Z,33.30
2019-05-21T08:54:50.990Z,34.50
2019-05-21T08:57:18.396Z,34.80
2019-05-21T08:59:45.665Z,35.23
2019-05-21T09:02:12.902Z,36.67
2019-05-21T09:04:46.339Z,34.37
2019-05-21T09:07:08.911Z,33.20
2019-05-21T09:09:49.399Z,34.13
2019-05-21T09:12:06.761Z,33.23
2019-05-21T09:14:34.975Z,32.70
2019-05-21T09:17:01.935Z,33.37
2019-05-21T09:19:28.898Z,32.90
2019-05-21T09:21:55.879Z,31.97
2019-05-21T09:24:24.769Z,31.50
2019-05-21T09:26:52.934Z,33.50
2019-05-21T09:29:22.342Z,31.47
2019-05-21T09:31:49.425Z,30.93
2019-05-21T09:34:16.395Z,32.63
2019-05-21T09:36:43.336Z,34.13
2019-05-21T09:39:10.297Z,34.00
2019-05-21T09:41:37.283Z,35.17
2019-05-21T09:44:04.222Z,34.50
2019-05-21T09:46:31.192Z,33.23
2019-05-21T09:48:59.205Z,34.40
2019-05-21T09:51:26.186Z,34.00
2019-05-21T09:53:53.291Z,35.43
2019-05-21T09:56:32.859Z,33.13
2019-05-21T09:59:05.999Z,33.57
2019-05-21T10:01:39.739Z,35.07
2019-05-21T10:04:06.698Z,33.83
2019-05-21T10:06:33.783Z,34.77
2019-05-21T10:09:00.846Z,31.83
2019-05-21T10:11:27.843Z,34.30
2019-05-21T10:13:56.538Z,34.40
2019-05-21T10:16:23.503Z,35.20
2019-05-21T10:18:52.276Z,33.57
2019-05-21T10:21:19.353Z,34.13
2019-05-21T10:23:48.294Z,33.50
2019-05-21T10:26:15.255Z,35.03
2019-05-21T10:28:42.258Z,45.37
2019-05-21T10:31:09.227Z,35.67
2019-05-21T10:33:36.155Z,34.63
2019-05-21T10:36:04.983Z,38.07
2019-05-21T10:38:31.932Z,35.97
2019-05-21T10:40:58.901Z,35.93
2019-05-21T10:43:25.922Z,33.90
2019-05-21T10:45:53.023Z,35.47
2019-05-21T10:48:19.958Z,32.40
2019-05-21T10:50:47.034Z,32.97
2019-05-21T10:53:14.293Z,31.10
2019-05-21T10:55:41.348Z,30.27
2019-05-21T10:58:08.302Z,31.37
2019-05-21T11:00:35.435Z,31.53
2019-05-21T11:03:07.422Z,29.47
2019-05-21T11:05:36.593Z,28.93
2019-05-21T11:08:22.989Z,29.20
2019-05-21T11:10:34.341Z,29.57
2019-05-21T11:13:01.324Z,30.53
2019-05-21T11:15:28.465Z,30.10
2019-05-21T11:18:09.528Z,29.83
2019-05-21T11:20:24.290Z,32.73
2019-05-21T11:22:58.513Z,31.90
2019-05-21T11:25:25.625Z,32.70
2019-05-21T11:27:52.582Z,33.40
2019-05-21T11:30:19.996Z,35.13
2019-05-21T11:32:48.046Z,36.37
2019-05-21T11:35:17.791Z,32.90
2019-05-21T11:37:47.817Z,30.23
2019-05-21T11:40:15.858Z,32.13
2019-05-21T11:42:42.838Z,33.97
2019-05-21T11:45:09.820Z,30.80
2019-05-21T11:47:36.792Z,31.60
2019-05-21T11:50:07.615Z,28.30
2019-05-21T11:52:34.581Z,29.83
2019-05-21T11:55:01.634Z,28.30
2019-05-21T11:57:28.680Z,27.27
2019-05-21T11:59:55.661Z,29.73
2019-05-21T12:02:22.610Z,28.70
2019-05-21T12:04:49.586Z,27.97
2019-05-21T12:07:16.631Z,28.50
2019-05-21T12:09:43.630Z,27.47
2019-05-21T12:12:10.611Z,28.20
2019-05-21T12:14:37.565Z,28.20
2019-05-21T12:17:04.913Z,28.87
2019-05-21T12:19:32.002Z,27.77
2019-05-21T12:21:58.953Z,27.33
2019-05-21T12:24:27.586Z,28.50
2019-05-21T12:26:54.815Z,28.30
2019-05-21T12:29:21.765Z,27.67
2019-05-21T12:31:48.757Z,27.57
2019-05-21T12:34:15.708Z,27.30
2019-05-21T12:36:42.667Z,24.93
2019-05-21T12:39:14.251Z,26.27
2019-05-21T12:41:38.578Z,24.47
2019-05-21T12:44:05.689Z,24.40
2019-05-21T12:46:32.650Z,22.87
2019-05-21T12:48:59.783Z,25.33
2019-05-21T12:51:26.804Z,24.23
2019-05-21T12:53:53.963Z,25.53
2019-05-21T12:56:20.971Z,24.53
2019-05-21T12:58:47.999Z,26.33
2019-05-21T13:01:14.977Z,25.43
2019-05-21T13:03:41.966Z,24.67
2019-05-21T13:06:08.934Z,23.57
2019-05-21T13:08:35.891Z,23.80
2019-05-21T13:11:03.193Z,25.13
2019-05-21T13:13:30.210Z,22.20
2019-05-21T13:15:57.151Z,23.73
2019-05-21T13:18:24.441Z,22.97
2019-05-21T13:20:51.389Z,24.50
2019-05-21T13:23:18.322Z,22.80
2019-05-21T13:25:45.293Z,21.90
2019-05-21T13:28:12.231Z,22.80
2019-05-21T13:30:39.316Z,21.27
2019-05-21T13:33:06.314Z,20.63
2019-05-21T13:35:35.598Z,21.33
2019-05-21T13:38:02.551Z,20.53
2019-05-21T13:40:30.940Z,20.50
2019-05-21T13:42:58.360Z,18.77
2019-05-21T13:45:25.323Z,19.40
2019-05-21T13:47:52.307Z,19.20
2019-05-21T13:50:19.263Z,19.73
2019-05-21T13:52:46.436Z,19.80
2019-05-21T13:55:13.642Z,18.03
2019-05-21T13:57:41.013Z,20.90
2019-05-21T14:00:13.174Z,21.10
2019-05-21T14:02:40.284Z,19.53
2019-05-21T14:05:08.593Z,21.50
2019-05-21T14:07:35.531Z,19.17
2019-05-21T14:10:13.931Z,18.53
2019-05-21T14:12:39.140Z,17.83
2019-05-21T14:15:06.410Z,18.40
2019-05-21T14:17:33.360Z,18.00
2019-05-21T14:20:00.336Z,17.63
2019-05-21T14:22:27.307Z,18.00
2019-05-21T14:24:54.316Z,16.37
2019-05-21T14:27:21.268Z,17.10
2019-05-21T14:29:50.701Z,17.00
2019-05-21T14:32:17.681Z,16.53
2019-05-21T14:35:00.265Z,16.77
2019-05-21T14:37:14.041Z,15.70
2019-05-21T14:39:41.200Z,16.40
2019-05-21T14:42:08.436Z,16.63
2019-05-21T14:44:35.619Z,16.13
2019-05-21T14:47:02.913Z,16.83
2019-05-21T14:49:30.102Z,16.40
2019-05-21T14:51:57.256Z,16.83
2019-05-21T14:54:26.955Z,17.00
2019-05-21T14:56:53.414Z,17.17
2019-05-21T14:59:20.408Z,17.83
2019-05-21T15:01:47.398Z,18.37
2019-05-21T15:04:14.538Z,17.63
2019-05-21T15:06:41.791Z,18.17
2019-05-21T15:09:08.763Z,18.23
2019-05-21T15:11:37.586Z,16.17
2019-05-21T15:14:04.574Z,17.27
2019-05-21T15:16:31.579Z,18.67
2019-05-21T15:18:58.563Z,18.23
2019-05-21T15:21:30.012Z,17.07
2019-05-21T15:23:57.163Z,17.17
2019-05-21T15:26:24.568Z,17.10
2019-05-21T15:28:51.547Z,16.67
2019-05-21T15:31:26.015Z,16.13
2019-05-21T15:33:53.292Z,15.10
2019-05-21T15:36:20.223Z,15.40
2019-05-21T15:38:50.734Z,15.60
2019-05-21T15:41:17.729Z,16.57
2019-05-21T15:43:46.054Z,15.43
2019-05-21T15:46:13.021Z,14.97
2019-05-21T15:48:40.032Z,16.30
2019-05-21T15:51:07.378Z,15.33
2019-05-21T15:53:34.348Z,14.47
2019-05-21T15:56:01.325Z,16.83
2019-05-21T15:58:28.286Z,16.50
2019-05-21T16:00:55.279Z,16.23
2019-05-21T16:03:22.230Z,17.37
2019-05-21T16:05:49.273Z,17.27
2019-05-21T16:08:16.257Z,17.20
2019-05-21T16:10:43.355Z,18.13
2019-05-21T16:13:10.459Z,17.57
2019-05-21T16:15:37.469Z,17.33
2019-05-21T16:18:04.483Z,16.47
2019-05-21T16:20:31.448Z,17.37
2019-05-21T16:22:58.575Z,16.57
2019-05-21T16:25:25.518Z,17.40
2019-05-21T16:27:52.522Z,17.00
2019-05-21T16:30:19.547Z,15.60
2019-05-21T16:32:46.604Z,17.00
2019-05-21T16:35:13.783Z,15.80
2019-05-21T16:37:40.868Z,16.40
2019-05-21T16:40:08.924Z,16.33
2019-05-21T16:42:37.512Z,14.53
2019-05-21T16:45:04.943Z,14.80
2019-05-21T16:47:44.362Z,15.60
2019-05-21T16:50:04.574Z,14.07
2019-05-21T16:52:33.650Z,14.83
2019-05-21T16:55:00.735Z,14.43
2019-05-21T16:57:27.796Z,15.53
2019-05-21T16:59:54.754Z,14.63
2019-05-21T17:02:21.715Z,14.83
2019-05-21T17:04:48.766Z,15.30
2019-05-21T17:07:15.844Z,15.30
2019-05-21T17:09:42.826Z,14.87
2019-05-21T17:12:09.917Z,15.07
2019-05-21T17:14:37.997Z,16.20
2019-05-21T17:17:05.109Z,14.23
2019-05-21T17:19:33.719Z,13.70
2019-05-21T17:22:19.279Z,13.17
2019-05-21T17:24:46.303Z,13.87
2019-05-21T17:27:13.262Z,14.57
2019-05-21T17:29:40.223Z,12.37
2019-05-21T17:32:10.356Z,13.67
2019-05-21T17:34:37.515Z,13.47
2019-05-21T17:37:05.612Z,13.87
2019-05-21T17:39:32.561Z,14.00
2019-05-21T17:42:13.265Z,14.40
2019-05-21T17:44:28.560Z,14.13
2019-05-21T17:46:55.609Z,13.63
2019-05-21T17:49:22.593Z,12.80
2019-05-21T17:51:49.564Z,12.93
2019-05-21T17:54:16.547Z,13.43
2019-05-21T17:56:43.624Z,14.13
2019-05-21T17:59:14.736Z,13.73
2019-05-21T18:01:42.114Z,13.57
2019-05-21T18:04:09.487Z,14.70
2019-05-21T18:06:37.415Z,14.03
2019-05-21T18:09:08.436Z,14.13
2019-05-21T18:11:35.521Z,14.70
2019-05-21T18:14:03.249Z,14.53
2019-05-21T18:16:30.960Z,13.47
2019-05-21T18:18:58.179Z,14.47
2019-05-21T18:21:25.956Z,14.47
2019-05-21T18:23:52.956Z,14.20
2019-05-21T18:26:19.992Z,13.90
2019-05-21T18:28:46.929Z,15.13
2019-05-21T18:31:14.214Z,13.70
2019-05-21T18:33:41.736Z,13.80
2019-05-21T18:36:08.730Z,14.13
2019-05-21T18:38:37.504Z,14.07
2019-05-21T18:41:04.512Z,14.57
2019-05-21T18:43:31.460Z,14.20
2019-05-21T18:45:58.455Z,13.53
2019-05-21T18:48:25.488Z,14.43
2019-05-21T18:50:55.432Z,13.50
2019-05-21T18:53:25.014Z,13.27
2019-05-21T18:55:52.118Z,13.13
2019-05-21T18:58:19.175Z,13.20
2019-05-21T19:00:46.353Z,13.53
2019-05-21T19:03:13.563Z,13.50
2019-05-21T19:05:40.713Z,14.33
2019-05-21T19:08:07.785Z,12.57
2019-05-21T19:10:34.796Z,13.63
2019-05-21T19:13:01.901Z,12.70
2019-05-21T19:15:29.049Z,14.47
2019-05-21T19:17:56.238Z,14.63
2019-05-21T19:20:23.373Z,14.97
2019-05-21T19:22:50.401Z,15.10
2019-05-21T19:25:17.546Z,15.83
2019-05-21T19:27:44.521Z,15.03
2019-05-21T19:30:13.508Z,15.57
2019-05-21T19:32:40.520Z,15.50
2019-05-21T19:35:08.740Z,15.07
2019-05-21T19:37:37.516Z,15.37
2019-05-21T19:40:05.189Z,15.57
2019-05-21T19:42:32.187Z,15.37
2019-05-21T19:44:59.186Z,15.50
2019-05-21T19:47:26.403Z,15.53
2019-05-21T19:49:53.393Z,16.10
2019-05-21T19:52:22.651Z,15.70
2019-05-21T19:54:49.659Z,16.97
2019-05-21T19:57:19.340Z,17.07
2019-05-21T19:59:46.446Z,17.00
2019-05-21T20:02:14.155Z,18.10
2019-05-21T20:04:42.240Z,16.80
2019-05-21T20:07:13.437Z,16.97
2019-05-21T20:09:41.766Z,16.70
2019-05-21T20:12:09.155Z,17.93
2019-05-21T20:14:36.230Z,16.67
2019-05-21T20:17:04.026Z,16.43
2019-05-21T20:19:31.557Z,17.23
2019-05-21T20:21:58.533Z,16.60
2019-05-21T20:24:26.055Z,15.90
2019-05-21T20:26:53.653Z,17.93
2019-05-21T20:29:21.332Z,16.93
2019-05-21T20:31:48.689Z,16.37
2019-05-21T20:34:17.506Z,17.03
2019-05-21T20:36:45.589Z,16.87
2019-05-21T20:39:15.848Z,16.27
2019-05-21T20:41:43.531Z,16.23
2019-05-21T20:44:13.730Z,16.00
2019-05-21T20:46:41.291Z,15.30
2019-05-21T20:49:09.629Z,15.37
2019-05-21T20:51:37.557Z,15.80
2019-05-21T20:54:05.428Z,16.33
2019-05-21T20:56:33.450Z,15.83
2019-05-21T20:59:00.441Z,15.93
2019-05-21T21:01:27.555Z,16.23
2019-05-21T21:03:55.241Z,16.27
2019-05-21T21:06:34.747Z,18.27
2019-05-21T21:08:51.724Z,17.93
2019-05-21T21:11:18.821Z,18.97
2019-05-21T21:13:47.846Z,18.40
2019-05-21T21:16:17.310Z,19.73
2019-05-21T21:18:44.551Z,19.30
2019-05-21T21:21:11.818Z,19.57
2019-05-21T21:23:40.169Z,21.33
2019-05-21T21:26:08.295Z,21.40
2019-05-21T21:28:35.429Z,21.17
2019-05-21T21:31:02.903Z,21.17
2019-05-21T21:33:30.131Z,22.43
2019-05-21T21:35:57.223Z,22.20
2019-05-21T21:38:26.672Z,21.33
2019-05-21T21:40:53.870Z,22.37
2019-05-21T21:43:22.407Z,22.73
2019-05-21T21:45:49.718Z,23.77
2019-05-21T21:48:17.045Z,21.27
2019-05-21T21:50:44.277Z,22.33
2019-05-21T21:53:11.478Z,23.87
2019-05-21T21:55:38.492Z,23.83
2019-05-21T21:58:05.601Z,23.27
2019-05-21T22:01:23.826Z,24.20
2019-05-21T22:03:51.253Z,23.23
2019-05-21T22:06:19.733Z,25.27
2019-05-21T22:08:46.947Z,24.87
2019-05-21T22:11:16.625Z,24.73
2019-05-21T22:13:44.949Z,23.47
2019-05-21T22:16:12.182Z,23.90
2019-05-21T22:18:39.655Z,24.70
2019-05-21T22:21:07.672Z,25.77
2019-05-21T22:23:35.268Z,23.90
2019-05-21T22:26:02.244Z,24.73
2019-05-21T22:28:29.513Z,24.53
2019-05-21T22:30:56.635Z,25.20
2019-05-21T22:33:23.798Z,24.50
2019-05-21T22:35:50.820Z,24.00
2019-05-21T22:38:17.839Z,24.43
2019-05-21T22:40:44.854Z,24.83
2019-05-21T22:43:13.187Z,26.03
2019-05-21T22:45:40.350Z,25.77
2019-05-21T22:48:07.406Z,25.10
2019-05-21T22:50:36.192Z,27.27
2019-05-21T22:53:03.491Z,27.93
2019-05-21T22:55:30.458Z,27.17
2019-05-21T22:57:58.874Z,28.13
2019-05-21T23:00:27.020Z,30.03
2019-05-21T23:02:54.724Z,29.90
2019-05-21T23:05:23.112Z,31.10
2019-05-21T23:07:50.384Z,33.83
2019-05-21T23:10:17.956Z,33.53
2019-05-21T23:12:44.973Z,33.43
2019-05-21T23:15:24.538Z,32.47
2019-05-21T23:17:42.193Z,30.60
2019-05-21T23:20:11.672Z,32.57
2019-05-21T23:22:39.876Z,30.83
2019-05-21T23:25:07.241Z,30.37
2019-05-21T23:27:34.590Z,28.40
2019-05-21T23:30:02.660Z,30.10
2019-05-21T23:32:31.685Z,30.73
2019-05-21T23:34:59.065Z,30.07
2019-05-21T23:37:26.657Z,30.60
2019-05-21T23:39:55.222Z,30.27
2019-05-21T23:42:29.544Z,31.83
2019-05-21T23:44:52.474Z,31.33
2019-05-21T23:47:20.042Z,32.83
2019-05-21T23:49:47.002Z,31.47
2019-05-21T23:52:14.196Z,32.97
2019-05-21T23:54:41.196Z,31.03
2019-05-21T23:57:11.009Z,30.90
2019-05-21T23:59:39.908Z,31.43
